createdAt,value
2019-01-11T00:02:12.023Z,-0.09
2019-01-11T00:04:43.110Z,-0.05
2019-01-11T00:07:14.102Z,0.04
2019-01-11T00:09:44.052Z,0.03
2019-01-11T00:12:13.550Z,-0.01
2019-01-11T00:14:50.844Z,0.03
2019-01-11T00:17:22.548Z,0.14
2019-01-11T00:19:52.181Z,0.10
2019-01-11T00:22:25.789Z,0.02
2019-01-11T00:25:07.213Z,0.00
2019-01-11T00:27:36.436Z,-0.06
2019-01-11T00:30:09.942Z,-0.03
2019-01-11T00:32:40.480Z,0.04
2019-01-11T00:35:11.575Z,-0.02
2019-01-11T00:37:44.902Z,0.11
2019-01-11T00:40:19.364Z,0.14
2019-01-11T00:42:54.370Z,0.27
2019-01-11T00:45:28.177Z,0.21
2019-01-11T00:47:59.679Z,0.02
2019-01-11T00:50:33.906Z,-0.04
2019-01-11T00:53:06.282Z,0.02
2019-01-11T00:55:40.103Z,-0.04
2019-01-11T00:58:14.339Z,0.02
2019-01-11T01:00:47.726Z,-0.20
2019-01-11T01:03:21.195Z,-0.10
2019-01-11T01:05:56.126Z,-0.13
2019-01-11T01:08:33.923Z,-0.17
2019-01-11T01:11:04.516Z,-0.11
2019-01-11T01:13:33.831Z,-0.12
2019-01-11T01:16:05.713Z,-0.19
2019-01-11T01:18:37.048Z,-0.17
2019-01-11T01:21:06.840Z,-0.08
2019-01-11T01:23:38.392Z,-0.02
2019-01-11T01:26:10.573Z,-0.31
2019-01-11T01:28:40.309Z,-0.48
2019-01-11T01:31:10.598Z,-0.27
2019-01-11T01:33:41.219Z,-0.47
2019-01-11T01:36:10.884Z,-0.29
2019-01-11T01:38:40.965Z,-0.31
2019-01-11T01:41:11.679Z,-0.41
2019-01-11T01:43:40.935Z,-0.31
2019-01-11T01:46:10.526Z,-0.21
2019-01-11T01:48:40.341Z,-0.44
2019-01-11T01:51:09.570Z,-0.46
2019-01-11T01:53:42.462Z,-0.68
2019-01-11T01:56:12.646Z,-0.48
2019-01-11T01:58:42.214Z,-0.37
2019-01-11T02:01:12.166Z,-0.42
2019-01-11T02:03:46.507Z,-0.29
2019-01-11T02:06:16.019Z,-0.22
2019-01-11T02:08:47.124Z,-0.19
2019-01-11T02:11:17.947Z,-0.11
2019-01-11T02:13:59.324Z,-0.15
2019-01-11T02:16:30.416Z,-0.30
2019-01-11T02:19:02.630Z,-0.30
2019-01-11T02:21:33.685Z,-0.01
2019-01-11T02:24:03.174Z,-0.06
2019-01-11T02:26:34.322Z,0.08
2019-01-11T02:29:13.219Z,-0.30
2019-01-11T02:31:46.399Z,-0.43
2019-01-11T02:34:18.944Z,-0.49
2019-01-11T02:36:48.274Z,-0.39
2019-01-11T02:39:17.740Z,-0.13
2019-01-11T02:41:48.460Z,-0.18
2019-01-11T02:44:20.936Z,-0.18
2019-01-11T02:46:51.843Z,-0.20
2019-01-11T02:49:23.446Z,-0.10
2019-01-11T02:52:00.021Z,-0.11
2019-01-11T02:54:31.453Z,-0.12
2019-01-11T02:57:07.668Z,0.05
2019-01-11T02:59:40.386Z,0.06
2019-01-11T03:02:12.374Z,0.13
2019-01-11T03:04:43.251Z,0.11
2019-01-11T03:07:15.613Z,-0.10
2019-01-11T03:09:45.945Z,0.06
2019-01-11T03:12:16.929Z,0.02
2019-01-11T03:14:49.745Z,0.10
2019-01-11T03:17:21.301Z,0.13
2019-01-11T03:19:57.658Z,0.08
2019-01-11T03:22:30.253Z,-0.04
2019-01-11T03:25:05.440Z,0.08
2019-01-11T03:27:37.375Z,0.12
2019-01-11T03:30:14.860Z,0.13
2019-01-11T03:32:48.255Z,0.17
2019-01-11T03:35:24.757Z,0.09
2019-01-11T03:37:56.360Z,0.18
2019-01-11T03:40:31.102Z,0.24
2019-01-11T03:43:02.572Z,0.19
2019-01-11T03:45:34.973Z,-0.03
2019-01-11T03:48:09.141Z,0.14
2019-01-11T03:50:41.144Z,0.06
2019-01-11T03:53:23.127Z,0.16
2019-01-11T03:55:54.112Z,-0.04
2019-01-11T03:58:27.593Z,0.03
2019-01-11T04:00:58.010Z,0.02
2019-01-11T04:03:36.091Z,0.06
2019-01-11T04:06:11.332Z,-0.09
2019-01-11T04:08:40.871Z,-0.04
2019-01-11T04:11:10.554Z,-0.04
2019-01-11T04:13:40.402Z,-0.06
2019-01-11T04:16:10.215Z,-0.06
2019-01-11T04:19:00.924Z,-0.08
2019-01-11T04:21:30.746Z,-0.12
2019-01-11T04:24:00.020Z,-0.13
2019-01-11T04:26:30.705Z,-0.15
2019-01-11T04:28:59.925Z,-0.16
2019-01-11T04:31:36.476Z,-0.21
2019-01-11T04:34:07.182Z,-0.11
2019-01-11T04:36:41.760Z,-0.14
2019-01-11T04:39:13.559Z,-0.07
2019-01-11T04:41:45.283Z,-0.06
2019-01-11T04:44:22.862Z,-0.14
2019-01-11T04:46:54.119Z,-0.08
2019-01-11T04:49:26.905Z,0.08
2019-01-11T04:52:01.545Z,-0.01
2019-01-11T04:54:32.906Z,0.02
2019-01-11T04:57:05.013Z,-0.04
2019-01-11T04:59:34.471Z,0.10
2019-01-11T05:02:05.150Z,-0.12
2019-01-11T05:04:36.285Z,-0.06
2019-01-11T05:07:08.417Z,-0.26
2019-01-11T05:09:40.107Z,-0.13
2019-01-11T05:12:13.308Z,-0.03
2019-01-11T05:14:45.766Z,-0.03
2019-01-11T05:17:16.765Z,0.01
2019-01-11T05:19:48.092Z,-0.03
2019-01-11T05:22:17.655Z,-0.19
2019-01-11T05:24:59.988Z,-0.10
2019-01-11T05:27:30.961Z,-0.01
2019-01-11T05:30:01.706Z,0.07
2019-01-11T05:32:32.816Z,0.04
2019-01-11T05:35:03.472Z,0.01
2019-01-11T05:37:34.666Z,0.15
2019-01-11T05:40:08.289Z,0.19
2019-01-11T05:42:40.941Z,0.06
2019-01-11T05:45:13.333Z,0.07
2019-01-11T05:47:42.585Z,0.03
2019-01-11T05:50:14.874Z,-0.04
2019-01-11T05:52:44.173Z,0.15
2019-01-11T05:55:50.157Z,0.05
2019-01-11T05:58:38.695Z,-0.06
2019-01-11T06:01:10.004Z,0.01
2019-01-11T06:03:44.244Z,-0.01
2019-01-11T06:06:21.541Z,0.05
2019-01-11T06:09:14.448Z,-0.03
2019-01-11T06:11:46.349Z,0.06
2019-01-11T06:14:24.637Z,0.11
2019-01-11T06:16:58.538Z,0.03
2019-01-11T06:19:31.357Z,0.13
2019-01-11T06:22:06.127Z,0.06
2019-01-11T06:24:43.704Z,0.00
2019-01-11T06:27:21.803Z,-0.06
2019-01-11T06:29:53.855Z,0.01
2019-01-11T06:32:28.420Z,0.11
2019-01-11T06:35:05.081Z,0.13
2019-01-11T06:37:40.913Z,0.23
2019-01-11T06:40:14.089Z,0.17
2019-01-11T06:43:16.668Z,0.26
2019-01-11T06:45:49.864Z,0.17
2019-01-11T06:48:43.304Z,0.27
2019-01-11T06:51:21.182Z,0.27
2019-01-11T06:53:52.249Z,0.24
2019-01-11T06:56:26.222Z,0.34
2019-01-11T06:59:21.840Z,0.33
2019-01-11T07:01:52.157Z,0.22
2019-01-11T07:04:31.568Z,0.36
2019-01-11T07:07:04.076Z,0.27
2019-01-11T07:09:35.369Z,0.34
2019-01-11T07:12:20.427Z,0.34
2019-01-11T07:15:16.230Z,0.35
2019-01-11T07:18:08.838Z,0.31
2019-01-11T07:20:43.004Z,0.28
2019-01-11T07:23:14.853Z,0.35
2019-01-11T07:25:51.907Z,0.52
2019-01-11T07:28:23.299Z,0.43
2019-01-11T07:31:16.294Z,0.40
2019-01-11T07:33:51.493Z,0.51
2019-01-11T07:36:35.646Z,0.47
2019-01-11T07:39:27.951Z,0.44
2019-01-11T07:41:57.808Z,0.51
2019-01-11T07:44:28.668Z,0.43
2019-01-11T07:47:08.823Z,0.44
2019-01-11T07:49:42.626Z,0.52
2019-01-11T07:52:18.532Z,0.49
2019-01-11T07:54:51.347Z,0.55
2019-01-11T07:57:21.602Z,0.49
2019-01-11T07:59:55.044Z,0.43
2019-01-11T08:02:24.825Z,0.43
2019-01-11T08:04:57.981Z,0.47
2019-01-11T08:07:27.678Z,0.51
2019-01-11T08:09:59.224Z,0.44
2019-01-11T08:12:29.689Z,0.57
2019-01-11T08:15:01.382Z,0.56
2019-01-11T08:17:31.811Z,0.55
2019-01-11T08:20:01.664Z,0.56
2019-01-11T08:22:37.868Z,0.56
2019-01-11T08:25:11.847Z,0.51
2019-01-11T08:27:46.255Z,0.60
2019-01-11T08:30:26.978Z,0.49
2019-01-11T08:33:18.687Z,0.42
2019-01-11T08:35:59.752Z,0.51
2019-01-11T08:38:57.439Z,0.47
2019-01-11T08:41:31.168Z,0.53
2019-01-11T08:44:12.305Z,0.56
2019-01-11T08:46:42.119Z,0.52
2019-01-11T08:49:23.354Z,0.65
2019-01-11T08:52:00.259Z,0.45
2019-01-11T08:54:30.889Z,0.51
2019-01-11T08:57:05.460Z,0.57
2019-01-11T08:59:35.416Z,0.70
2019-01-11T09:02:10.983Z,0.78
2019-01-11T09:04:41.864Z,0.75
2019-01-11T09:07:16.952Z,0.70
2019-01-11T09:09:50.593Z,0.57
2019-01-11T09:12:22.360Z,0.76
2019-01-11T09:14:54.063Z,0.74
2019-01-11T09:17:23.620Z,0.58
2019-01-11T09:19:53.327Z,0.69
2019-01-11T09:22:31.350Z,0.56
2019-01-11T09:25:10.044Z,0.69
2019-01-11T09:27:55.583Z,0.84
2019-01-11T09:30:26.077Z,0.76
2019-01-11T09:32:55.856Z,0.77
2019-01-11T09:35:29.328Z,0.80
2019-01-11T09:37:59.926Z,0.54
2019-01-11T09:40:29.935Z,0.60
2019-01-11T09:43:02.670Z,0.54
2019-01-11T09:45:32.612Z,0.51
2019-01-11T09:48:25.924Z,0.56
2019-01-11T09:51:00.839Z,0.49
2019-01-11T09:53:35.292Z,0.74
2019-01-11T09:56:17.436Z,0.56
2019-01-11T09:58:47.440Z,0.73
2019-01-11T10:01:18.558Z,0.60
2019-01-11T10:03:48.896Z,0.70
2019-01-11T10:06:21.039Z,0.64
2019-01-11T10:08:50.835Z,0.71
2019-01-11T10:11:23.919Z,0.72
2019-01-11T10:14:03.829Z,0.78
2019-01-11T10:16:35.488Z,0.95
2019-01-11T10:19:06.471Z,0.88
2019-01-11T10:21:35.915Z,0.86
2019-01-11T10:24:05.796Z,0.93
2019-01-11T10:26:36.274Z,0.71
2019-01-11T10:29:06.339Z,0.95
2019-01-11T10:31:36.666Z,1.06
2019-01-11T10:34:06.345Z,0.88
2019-01-11T10:36:36.415Z,0.84
2019-01-11T10:39:09.634Z,1.00
2019-01-11T10:41:39.639Z,1.07
2019-01-11T10:44:09.217Z,1.14
2019-01-11T10:46:49.057Z,1.20
2019-01-11T10:49:17.843Z,1.18
2019-01-11T10:51:48.183Z,1.21
2019-01-11T10:54:36.400Z,1.24
2019-01-11T10:57:05.934Z,1.21
2019-01-11T10:59:35.286Z,1.18
2019-01-11T11:02:04.904Z,1.25
2019-01-11T11:04:35.181Z,1.10
2019-01-11T11:07:05.540Z,1.24
2019-01-11T11:09:38.241Z,1.38
2019-01-11T11:12:11.318Z,1.01
2019-01-11T11:14:40.944Z,0.99
2019-01-11T11:17:11.124Z,0.80
2019-01-11T11:19:44.122Z,0.83
2019-01-11T11:22:17.178Z,1.01
2019-01-11T11:24:49.860Z,0.89
2019-01-11T11:27:19.367Z,0.91
2019-01-11T11:29:48.949Z,0.97
2019-01-11T11:32:29.265Z,1.13
2019-01-11T11:34:58.973Z,1.01
2019-01-11T11:37:29.677Z,1.02
2019-01-11T11:40:03.060Z,0.95
2019-01-11T11:42:37.470Z,0.94
2019-01-11T11:45:07.668Z,0.94
2019-01-11T11:47:37.796Z,0.94
2019-01-11T11:50:08.894Z,0.95
2019-01-11T11:52:39.945Z,0.94
2019-01-11T11:55:12.893Z,0.92
2019-01-11T11:57:42.448Z,1.07
2019-01-11T12:00:17.403Z,1.11
2019-01-11T12:02:46.661Z,0.96
2019-01-11T12:05:22.667Z,0.94
2019-01-11T12:07:54.654Z,0.97
2019-01-11T12:10:24.043Z,1.05
2019-01-11T12:12:54.416Z,1.10
2019-01-11T12:15:23.988Z,1.04
2019-01-11T12:17:53.505Z,1.05
2019-01-11T12:20:33.203Z,1.01
2019-01-11T12:23:05.197Z,1.02
2019-01-11T12:25:34.724Z,1.04
2019-01-11T12:28:04.348Z,1.03
2019-01-11T12:30:34.226Z,1.08
2019-01-11T12:33:07.064Z,1.05
2019-01-11T12:35:39.252Z,1.11
2019-01-11T12:38:13.675Z,1.13
2019-01-11T12:40:41.808Z,1.12
2019-01-11T12:43:11.481Z,1.21
2019-01-11T12:45:41.035Z,1.24
2019-01-11T12:48:10.295Z,1.24
2019-01-11T12:50:42.220Z,1.21
2019-01-11T12:53:12.749Z,1.23
2019-01-11T12:55:43.154Z,1.37
2019-01-11T12:58:13.144Z,1.30
2019-01-11T13:00:42.516Z,1.37
2019-01-11T13:03:15.139Z,1.41
2019-01-11T13:05:45.232Z,1.56
2019-01-11T13:08:47.368Z,1.51
2019-01-11T13:11:25.563Z,1.53
2019-01-11T13:14:14.217Z,1.48
2019-01-11T13:17:05.547Z,1.35
2019-01-11T13:20:08.441Z,1.38
2019-01-11T13:23:13.361Z,1.39
2019-01-11T13:25:52.574Z,1.49
2019-01-11T13:28:29.234Z,1.47
2019-01-11T13:31:06.671Z,1.45
2019-01-11T13:33:43.665Z,1.70
2019-01-11T13:36:20.976Z,1.75
2019-01-11T13:39:01.494Z,1.53
2019-01-11T13:41:55.235Z,1.58
2019-01-11T13:44:28.615Z,1.72
2019-01-11T13:47:02.810Z,1.77
2019-01-11T13:50:04.320Z,1.77
2019-01-11T13:52:40.696Z,1.73
2019-01-11T13:55:27.962Z,1.61
2019-01-11T13:57:58.102Z,1.70
2019-01-11T14:00:29.147Z,1.49
2019-01-11T14:03:30.640Z,1.55
2019-01-11T14:06:05.851Z,1.62
2019-01-11T14:08:40.290Z,1.55
2019-01-11T14:11:09.963Z,1.64
2019-01-11T14:13:48.917Z,1.59
2019-01-11T14:16:36.520Z,1.63
2019-01-11T14:19:07.546Z,1.59
2019-01-11T14:21:37.668Z,1.62
2019-01-11T14:24:07.187Z,1.75
2019-01-11T14:26:37.598Z,1.63
2019-01-11T14:29:09.407Z,1.66
2019-01-11T14:31:38.725Z,1.68
2019-01-11T14:34:08.672Z,1.62
2019-01-11T14:36:38.728Z,1.67
2019-01-11T14:39:10.255Z,1.66
2019-01-11T14:41:39.559Z,1.79
2019-01-11T14:44:08.820Z,1.71
2019-01-11T14:46:38.041Z,1.73
2019-01-11T14:49:11.275Z,1.56
2019-01-11T14:51:40.883Z,1.65
2019-01-11T14:54:14.942Z,1.57
2019-01-11T14:56:44.556Z,1.59
2019-01-11T14:59:16.918Z,1.53
2019-01-11T15:01:47.351Z,1.49
2019-01-11T15:04:16.963Z,1.60
2019-01-11T15:06:47.064Z,1.53
2019-01-11T15:09:16.701Z,1.56
2019-01-11T15:11:45.924Z,1.51
2019-01-11T15:14:15.473Z,1.59
2019-01-11T15:16:44.741Z,1.47
2019-01-11T15:19:15.660Z,1.36
2019-01-11T15:21:46.394Z,1.43
2019-01-11T15:24:16.382Z,1.42
2019-01-11T15:26:46.523Z,1.59
2019-01-11T15:29:15.909Z,1.60
2019-01-11T15:31:45.751Z,1.64
2019-01-11T15:34:16.746Z,1.54
2019-01-11T15:36:46.420Z,1.57
2019-01-11T15:39:19.549Z,1.52
2019-01-11T15:41:56.304Z,1.63
2019-01-11T15:44:59.010Z,1.64
2019-01-11T15:47:29.297Z,1.44
2019-01-11T15:50:25.086Z,1.43
2019-01-11T15:53:06.474Z,1.42
2019-01-11T15:55:37.897Z,1.37
2019-01-11T15:58:09.935Z,1.42
2019-01-11T16:00:53.379Z,1.46
2019-01-11T16:03:34.405Z,1.36
2019-01-11T16:06:36.093Z,1.31
2019-01-11T16:10:02.612Z,1.23
2019-01-11T16:13:14.046Z,1.22
2019-01-11T16:16:30.328Z,1.28
2019-01-11T16:19:03.346Z,1.39
2019-01-11T16:21:33.545Z,1.40
2019-01-11T16:24:09.385Z,1.36
2019-01-11T16:26:39.538Z,1.39
2019-01-11T16:29:09.697Z,1.43
2019-01-11T16:31:44.028Z,1.43
2019-01-11T16:34:15.733Z,1.44
2019-01-11T16:36:45.850Z,1.48
2019-01-11T16:39:26.041Z,1.46
2019-01-11T16:41:55.899Z,1.48
2019-01-11T16:44:25.812Z,1.52
2019-01-11T16:46:55.105Z,1.51
2019-01-11T16:49:24.350Z,1.48
2019-01-11T16:51:54.193Z,1.43
2019-01-11T16:54:23.443Z,1.58
2019-01-11T16:56:54.836Z,1.54
2019-01-11T16:59:26.847Z,1.51
2019-01-11T17:02:10.811Z,1.49
2019-01-11T17:04:40.191Z,1.50
2019-01-11T17:07:11.441Z,1.54
2019-01-11T17:09:51.580Z,1.61
2019-01-11T17:12:27.641Z,1.65
2019-01-11T17:15:02.478Z,1.61
2019-01-11T17:17:35.246Z,1.65
2019-01-11T17:20:06.478Z,1.64
2019-01-11T17:22:39.257Z,1.70
2019-01-11T17:25:09.664Z,1.68
2019-01-11T17:27:46.271Z,1.76
2019-01-11T17:30:21.418Z,1.63
2019-01-11T17:32:51.636Z,1.66
2019-01-11T17:35:50.032Z,1.65
2019-01-11T17:38:41.549Z,1.59
2019-01-11T17:41:13.362Z,1.65
2019-01-11T17:43:49.588Z,1.60
2019-01-11T17:46:20.701Z,1.60
2019-01-11T17:48:49.968Z,1.58
2019-01-11T17:51:22.139Z,1.63
2019-01-11T17:53:52.081Z,1.65
2019-01-11T17:56:21.307Z,1.64
2019-01-11T17:58:51.269Z,1.67
2019-01-11T18:01:26.224Z,1.62
2019-01-11T18:03:55.796Z,1.64
2019-01-11T18:06:26.809Z,1.61
2019-01-11T18:09:04.366Z,1.59
2019-01-11T18:11:41.381Z,1.56
2019-01-11T18:14:10.669Z,1.58
2019-01-11T18:16:59.731Z,1.62
2019-01-11T18:19:47.756Z,1.67
2019-01-11T18:22:19.306Z,1.71
2019-01-11T18:24:50.741Z,1.80
2019-01-11T18:27:21.619Z,1.68
2019-01-11T18:30:09.761Z,1.67
2019-01-11T18:32:39.759Z,1.65
2019-01-11T18:35:09.977Z,1.71
2019-01-11T18:37:45.783Z,1.63
2019-01-11T18:40:18.202Z,1.70
2019-01-11T18:43:09.050Z,1.54
2019-01-11T18:45:56.406Z,1.52
2019-01-11T18:48:26.915Z,1.58
2019-01-11T18:50:56.311Z,1.63
2019-01-11T18:53:26.661Z,1.58
2019-01-11T18:55:56.803Z,1.60
2019-01-11T18:58:31.365Z,1.68
2019-01-11T19:01:01.158Z,1.71
2019-01-11T19:03:47.493Z,1.77
2019-01-11T19:06:31.361Z,1.71
2019-01-11T19:09:05.468Z,1.72
2019-01-11T19:11:53.403Z,1.72
2019-01-11T19:14:26.899Z,1.63
2019-01-11T19:16:59.257Z,1.56
2019-01-11T19:19:32.610Z,1.66
2019-01-11T19:22:05.553Z,1.69
2019-01-11T19:24:36.418Z,1.68
2019-01-11T19:27:14.719Z,1.70
2019-01-11T19:29:51.501Z,1.64
2019-01-11T19:32:24.267Z,1.60
2019-01-11T19:35:11.673Z,1.58
2019-01-11T19:38:02.478Z,1.55
2019-01-11T19:40:59.374Z,1.56
2019-01-11T19:43:56.213Z,1.40
2019-01-11T19:46:37.224Z,1.40
2019-01-11T19:49:17.491Z,1.42
2019-01-11T19:52:15.081Z,1.39
2019-01-11T19:54:52.115Z,1.51
2019-01-11T19:57:37.846Z,1.52
2019-01-11T20:00:19.591Z,1.47
2019-01-11T20:02:50.779Z,1.43
2019-01-11T20:05:21.918Z,1.38
2019-01-11T20:07:54.032Z,1.47
2019-01-11T20:10:35.425Z,1.46
2019-01-11T20:13:09.629Z,1.38
2019-01-11T20:15:45.633Z,1.48
2019-01-11T20:18:31.845Z,1.42
2019-01-11T20:21:04.726Z,1.33
2019-01-11T20:23:37.043Z,1.23
2019-01-11T20:26:32.804Z,1.32
2019-01-11T20:29:04.562Z,1.32
2019-01-11T20:31:38.216Z,1.41
2019-01-11T20:34:08.642Z,1.49
2019-01-11T20:36:48.294Z,1.52
2019-01-11T20:39:19.258Z,1.57
2019-01-11T20:41:52.221Z,1.60
2019-01-11T20:44:23.338Z,1.64
2019-01-11T20:47:08.387Z,1.73
2019-01-11T20:50:06.717Z,1.61
2019-01-11T20:52:48.336Z,1.53
2019-01-11T20:55:27.294Z,1.59
2019-01-11T20:58:11.164Z,1.65
2019-01-11T21:00:45.848Z,1.63
2019-01-11T21:03:19.148Z,1.58
2019-01-11T21:06:08.783Z,1.62
2019-01-11T21:09:01.357Z,1.60
2019-01-11T21:11:35.132Z,1.76
2019-01-11T21:14:06.653Z,1.77
2019-01-11T21:16:36.256Z,1.72
2019-01-11T21:19:08.396Z,1.58
2019-01-11T21:22:04.124Z,1.59
2019-01-11T21:25:00.177Z,1.60
2019-01-11T21:27:48.513Z,1.62
2019-01-11T21:30:45.007Z,1.56
2019-01-11T21:33:23.200Z,1.49
2019-01-11T21:36:01.368Z,1.68
2019-01-11T21:38:36.012Z,1.62
2019-01-11T21:41:12.487Z,1.63
2019-01-11T21:43:44.049Z,1.58
2019-01-11T21:46:14.289Z,1.63
2019-01-11T21:48:45.895Z,1.64
2019-01-11T21:51:15.432Z,1.66
2019-01-11T21:53:44.679Z,1.73
2019-01-11T21:56:14.253Z,1.74
2019-01-11T21:58:45.938Z,1.77
2019-01-11T22:01:29.303Z,1.76
2019-01-11T22:04:02.079Z,1.79
2019-01-11T22:06:33.606Z,1.80
2019-01-11T22:09:08.409Z,1.77
2019-01-11T22:11:38.358Z,1.73
2019-01-11T22:14:09.141Z,1.74
2019-01-11T22:16:39.949Z,1.83
2019-01-11T22:19:10.304Z,1.77
2019-01-11T22:21:39.613Z,1.81
2019-01-11T22:24:09.154Z,1.76
2019-01-11T22:26:38.425Z,1.77
2019-01-11T22:29:08.749Z,1.73
2019-01-11T22:31:38.308Z,1.68
2019-01-11T22:34:08.632Z,1.70
2019-01-11T22:36:37.731Z,1.76
2019-01-11T22:39:09.286Z,1.82
2019-01-11T22:41:38.889Z,1.76
2019-01-11T22:44:08.137Z,1.55
2019-01-11T22:46:37.764Z,1.50
2019-01-11T22:49:07.825Z,1.58
2019-01-11T22:51:37.083Z,1.67
2019-01-11T22:54:10.323Z,1.73
2019-01-11T22:56:37.313Z,1.63
2019-01-11T22:59:07.339Z,1.65
2019-01-11T23:01:50.851Z,1.59
2019-01-11T23:04:21.376Z,1.63
2019-01-11T23:07:19.726Z,1.66
2019-01-11T23:09:55.772Z,1.69
2019-01-11T23:12:45.997Z,1.73
2019-01-11T23:15:23.128Z,1.73
2019-01-11T23:18:19.040Z,1.76
2019-01-11T23:20:50.830Z,1.76
2019-01-11T23:23:20.854Z,1.77
2019-01-11T23:25:50.086Z,1.75
2019-01-11T23:28:19.393Z,1.83
2019-01-11T23:30:48.630Z,1.89
2019-01-11T23:33:17.875Z,1.96
2019-01-11T23:35:47.106Z,1.85
2019-01-11T23:38:16.364Z,1.88
2019-01-11T23:40:45.625Z,1.84
2019-01-11T23:43:14.891Z,1.83
2019-01-11T23:45:44.664Z,1.59
2019-01-11T23:48:13.777Z,1.50
2019-01-11T23:50:43.385Z,1.57
2019-01-11T23:53:13.008Z,1.58
2019-01-11T23:55:42.270Z,1.61
2019-01-11T23:58:11.539Z,1.65
